createdAt,value
2018-07-15T00:00:50.884Z,1013.65
2018-07-15T00:01:50.876Z,1013.68
2018-07-15T00:02:50.875Z,1013.61
2018-07-15T00:03:50.879Z,1013.60
2018-07-15T00:04:50.877Z,1013.56
2018-07-15T00:05:50.872Z,1013.61
2018-07-15T00:06:50.869Z,1013.58
2018-07-15T00:07:50.871Z,1013.54
2018-07-15T00:08:50.866Z,1013.56
2018-07-15T00:09:50.872Z,1013.55
2018-07-15T00:10:50.871Z,1013.56
2018-07-15T00:11:50.870Z,1013.54
2018-07-15T00:12:50.866Z,1013.56
2018-07-15T00:13:50.862Z,1013.57
2018-07-15T00:14:50.859Z,1013.56
2018-07-15T00:15:50.858Z,1013.55
2018-07-15T00:16:50.856Z,1013.57
2018-07-15T00:17:50.859Z,1013.53
2018-07-15T00:18:50.858Z,1013.61
2018-07-15T00:19:50.852Z,1013.61
2018-07-15T00:20:50.850Z,1013.62
2018-07-15T00:21:50.853Z,1013.63
2018-07-15T00:22:50.851Z,1013.59
2018-07-15T00:23:50.852Z,1013.63
2018-07-15T00:24:50.848Z,1013.64
2018-07-15T00:25:50.842Z,1013.62
2018-07-15T00:26:50.842Z,1013.59
2018-07-15T00:27:50.841Z,1013.60
2018-07-15T00:28:50.837Z,1013.57
2018-07-15T00:29:50.841Z,1013.63
2018-07-15T00:30:50.840Z,1013.57
2018-07-15T00:31:50.842Z,1013.62
2018-07-15T00:32:50.837Z,1013.65
2018-07-15T00:33:50.830Z,1013.60
2018-07-15T00:34:50.830Z,1013.65
2018-07-15T00:35:50.832Z,1013.62
2018-07-15T00:36:50.831Z,1013.61
2018-07-15T00:37:50.828Z,1013.61
2018-07-15T00:38:50.822Z,1013.60
2018-07-15T00:39:50.822Z,1013.64
2018-07-15T00:40:50.820Z,1013.62
2018-07-15T00:41:50.822Z,1013.62
2018-07-15T00:42:50.821Z,1013.63
2018-07-15T00:43:50.820Z,1013.62
2018-07-15T00:44:50.817Z,1013.59
2018-07-15T00:45:50.810Z,1013.60
2018-07-15T00:46:50.809Z,1013.57
2018-07-15T00:47:50.807Z,1013.55
2018-07-15T00:48:50.806Z,1013.58
2018-07-15T00:49:50.808Z,1013.60
2018-07-15T00:50:50.806Z,1013.58
2018-07-15T00:51:50.801Z,1013.59
2018-07-15T00:52:50.798Z,1013.59
2018-07-15T00:53:50.802Z,1013.59
2018-07-15T00:54:50.806Z,1013.60
2018-07-15T00:55:50.799Z,1013.59
2018-07-15T00:56:50.795Z,1013.60
2018-07-15T00:57:50.793Z,1013.57
2018-07-15T00:58:50.788Z,1013.52
2018-07-15T00:59:50.787Z,1013.56
2018-07-15T01:00:50.785Z,1013.57
2018-07-15T01:01:50.793Z,1013.49
2018-07-15T01:02:50.787Z,1013.56
2018-07-15T01:03:50.784Z,1013.51
2018-07-15T01:04:50.786Z,1013.57
2018-07-15T01:05:50.777Z,1013.56
2018-07-15T01:06:50.779Z,1013.51
2018-07-15T01:07:50.779Z,1013.51
2018-07-15T01:08:50.775Z,1013.55
2018-07-15T01:09:50.769Z,1013.56
2018-07-15T01:10:50.767Z,1013.52
2018-07-15T01:11:50.766Z,1013.55
2018-07-15T01:12:50.764Z,1013.53
2018-07-15T01:13:50.765Z,1013.51
2018-07-15T01:14:50.763Z,1013.57
2018-07-15T01:15:50.762Z,1013.57
2018-07-15T01:16:50.760Z,1013.52
2018-07-15T01:17:50.753Z,1013.58
2018-07-15T01:18:50.758Z,1013.58
2018-07-15T01:19:50.752Z,1013.53
2018-07-15T01:20:50.749Z,1013.55
2018-07-15T01:21:50.752Z,1013.57
2018-07-15T01:22:50.750Z,1013.48
2018-07-15T01:23:50.747Z,1013.53
2018-07-15T01:24:50.745Z,1013.47
2018-07-15T01:25:50.744Z,1013.47
2018-07-15T01:26:50.742Z,1013.54
2018-07-15T01:27:50.741Z,1013.52
2018-07-15T01:28:50.738Z,1013.48
2018-07-15T01:29:50.732Z,1013.45
2018-07-15T01:30:50.729Z,1013.50
2018-07-15T01:31:50.728Z,1013.51
2018-07-15T01:32:50.755Z,1013.46
2018-07-15T01:33:50.728Z,1013.48
2018-07-15T01:34:50.727Z,1013.47
2018-07-15T01:35:50.726Z,1013.49
2018-07-15T01:36:50.722Z,1013.46
2018-07-15T01:37:50.717Z,1013.47
2018-07-15T01:38:50.714Z,1013.49
2018-07-15T01:39:50.717Z,1013.50
2018-07-15T01:40:50.713Z,1013.47
2018-07-15T01:41:50.708Z,1013.47
2018-07-15T01:42:50.705Z,1013.44
2018-07-15T01:43:50.705Z,1013.47
2018-07-15T01:44:50.702Z,1013.45
2018-07-15T01:45:50.704Z,1013.42
2018-07-15T01:46:50.703Z,1013.45
2018-07-15T01:47:50.700Z,1013.40
2018-07-15T01:48:50.697Z,1013.49
2018-07-15T01:49:50.691Z,1013.42
2018-07-15T01:50:50.690Z,1013.41
2018-07-15T01:51:50.688Z,1013.42
2018-07-15T01:52:50.684Z,1013.48
2018-07-15T01:53:50.686Z,1013.41
2018-07-15T01:54:50.684Z,1013.43
2018-07-15T01:55:50.678Z,1013.42
2018-07-15T01:56:50.679Z,1013.42
2018-07-15T01:57:50.681Z,1013.39
2018-07-15T01:58:50.676Z,1013.42
2018-07-15T01:59:50.675Z,1013.41
2018-07-15T02:00:50.673Z,1013.42
2018-07-15T02:01:50.665Z,1013.35
2018-07-15T02:02:50.662Z,1013.42
2018-07-15T02:03:50.660Z,1013.39
2018-07-15T02:04:50.709Z,1013.37
2018-07-15T02:05:50.661Z,1013.39
2018-07-15T02:06:50.659Z,1013.43
2018-07-15T02:07:50.661Z,1013.38
2018-07-15T02:08:50.652Z,1013.37
2018-07-15T02:09:50.647Z,1013.36
2018-07-15T02:10:50.646Z,1013.38
2018-07-15T02:11:50.648Z,1013.31
2018-07-15T02:12:50.644Z,1013.35
2018-07-15T02:13:50.641Z,1013.31
2018-07-15T02:14:50.635Z,1013.30
2018-07-15T02:15:50.637Z,1013.29
2018-07-15T02:16:50.630Z,1013.35
2018-07-15T02:17:50.634Z,1013.29
2018-07-15T02:18:50.630Z,1013.29
2018-07-15T02:19:50.629Z,1013.30
2018-07-15T02:20:50.628Z,1013.29
2018-07-15T02:21:50.618Z,1013.27
2018-07-15T02:22:50.619Z,1013.27
2018-07-15T02:23:50.614Z,1013.27
2018-07-15T02:24:50.613Z,1013.24
2018-07-15T02:25:50.614Z,1013.27
2018-07-15T02:26:50.610Z,1013.30
2018-07-15T02:27:50.605Z,1013.31
2018-07-15T02:28:50.604Z,1013.29
2018-07-15T02:29:50.603Z,1013.29
2018-07-15T02:30:50.605Z,1013.27
2018-07-15T02:31:50.609Z,1013.29
2018-07-15T02:32:50.597Z,1013.28
2018-07-15T02:33:50.590Z,1013.24
2018-07-15T02:34:50.590Z,1013.25
2018-07-15T02:35:50.590Z,1013.25
2018-07-15T02:36:50.637Z,1013.28
2018-07-15T02:37:50.585Z,1013.28
2018-07-15T02:38:50.582Z,1013.27
2018-07-15T02:39:50.581Z,1013.28
2018-07-15T02:40:50.578Z,1013.29
2018-07-15T02:41:50.571Z,1013.27
2018-07-15T02:42:50.571Z,1013.27
2018-07-15T02:43:50.572Z,1013.28
2018-07-15T02:44:50.571Z,1013.30
2018-07-15T02:45:50.564Z,1013.30
2018-07-15T02:46:50.584Z,1013.31
2018-07-15T02:47:50.563Z,1013.25
2018-07-15T02:48:50.553Z,1013.26
2018-07-15T02:49:50.553Z,1013.29
2018-07-15T02:50:50.553Z,1013.30
2018-07-15T02:51:50.549Z,1013.23
2018-07-15T02:52:50.551Z,1013.24
2018-07-15T02:53:50.540Z,1013.26
2018-07-15T02:54:50.537Z,1013.27
2018-07-15T02:55:50.535Z,1013.25
2018-07-15T02:56:50.540Z,1013.26
2018-07-15T02:57:50.533Z,1013.25
2018-07-15T02:58:50.532Z,1013.24
2018-07-15T02:59:50.525Z,1013.27
2018-07-15T03:00:50.526Z,1013.23
2018-07-15T03:01:50.525Z,1013.31
2018-07-15T03:02:50.522Z,1013.24
2018-07-15T03:03:50.521Z,1013.31
2018-07-15T03:04:50.517Z,1013.31
2018-07-15T03:05:50.510Z,1013.30
2018-07-15T03:06:50.507Z,1013.30
2018-07-15T03:07:50.504Z,1013.27
2018-07-15T03:08:50.502Z,1013.35
2018-07-15T03:09:50.502Z,1013.28
2018-07-15T03:10:50.500Z,1013.31
2018-07-15T03:11:50.500Z,1013.28
2018-07-15T03:12:50.497Z,1013.28
2018-07-15T03:13:50.489Z,1013.27
2018-07-15T03:14:50.491Z,1013.26
2018-07-15T03:15:50.487Z,1013.26
2018-07-15T03:16:50.486Z,1013.19
2018-07-15T03:17:50.478Z,1013.24
2018-07-15T03:18:50.476Z,1013.24
2018-07-15T03:19:50.489Z,1013.32
2018-07-15T03:20:50.469Z,1013.29
2018-07-15T03:21:50.471Z,1013.33
2018-07-15T03:22:50.469Z,1013.33
2018-07-15T03:23:50.468Z,1013.31
2018-07-15T03:24:50.464Z,1013.26
2018-07-15T03:25:50.456Z,1013.30
2018-07-15T03:26:50.457Z,1013.31
2018-07-15T03:27:50.452Z,1013.29
2018-07-15T03:28:50.448Z,1013.23
2018-07-15T03:29:50.450Z,1013.24
2018-07-15T03:30:50.449Z,1013.20
2018-07-15T03:31:50.442Z,1013.23
2018-07-15T03:32:50.438Z,1013.17
2018-07-15T03:33:50.441Z,1013.16
2018-07-15T03:34:50.438Z,1013.16
2018-07-15T03:35:50.435Z,1013.20
2018-07-15T03:36:50.431Z,1013.17
2018-07-15T03:37:50.425Z,1013.17
2018-07-15T03:38:50.423Z,1013.18
2018-07-15T03:39:50.428Z,1013.21
2018-07-15T03:40:50.420Z,1013.20
2018-07-15T03:41:50.415Z,1013.17
2018-07-15T03:42:50.412Z,1013.19
2018-07-15T03:43:50.409Z,1013.18
2018-07-15T03:44:50.405Z,1013.18
2018-07-15T03:45:50.409Z,1013.17
2018-07-15T03:46:50.405Z,1013.15
2018-07-15T03:47:50.400Z,1013.14
2018-07-15T03:48:50.397Z,1013.18
2018-07-15T03:49:50.397Z,1013.19
2018-07-15T03:50:50.395Z,1013.13
2018-07-15T03:51:50.391Z,1013.12
2018-07-15T03:52:50.388Z,1013.11
2018-07-15T03:53:50.381Z,1013.11
2018-07-15T03:54:50.378Z,1013.03
2018-07-15T03:55:50.375Z,1013.06
2018-07-15T03:56:50.372Z,1013.09
2018-07-15T03:57:50.374Z,1013.05
2018-07-15T03:58:50.377Z,1013.04
2018-07-15T03:59:50.370Z,1013.07
2018-07-15T04:00:50.532Z,1013.08
2018-07-15T04:01:50.359Z,1013.06
2018-07-15T04:02:50.356Z,1013.05
2018-07-15T04:03:50.358Z,1013.05
2018-07-15T04:04:50.356Z,1013.09
2018-07-15T04:05:50.349Z,1013.08
2018-07-15T04:06:50.346Z,1013.08
2018-07-15T04:07:50.344Z,1013.04
2018-07-15T04:08:50.393Z,1013.02
2018-07-15T04:09:50.344Z,1013.06
2018-07-15T04:10:50.338Z,1013.05
2018-07-15T04:11:50.336Z,1013.05
2018-07-15T04:12:50.333Z,1013.03
2018-07-15T04:13:50.326Z,1013.01
2018-07-15T04:14:50.328Z,1012.97
2018-07-15T04:15:50.322Z,1013.05
2018-07-15T04:16:50.318Z,1013.02
2018-07-15T04:17:50.320Z,1013.00
2018-07-15T04:18:50.320Z,1013.02
2018-07-15T04:19:50.310Z,1012.97
2018-07-15T04:20:50.308Z,1012.94
2018-07-15T04:21:50.310Z,1012.99
2018-07-15T04:22:50.308Z,1013.00
2018-07-15T04:23:50.304Z,1012.93
2018-07-15T04:24:50.301Z,1012.96
2018-07-15T04:25:50.296Z,1012.91
2018-07-15T04:26:50.292Z,1012.94
2018-07-15T04:27:50.290Z,1013.02
2018-07-15T04:28:50.287Z,1012.98
2018-07-15T04:29:50.289Z,1012.99
2018-07-15T04:30:50.287Z,1012.96
2018-07-15T04:31:50.285Z,1012.96
2018-07-15T04:32:50.282Z,1012.99
2018-07-15T04:33:50.276Z,1012.95
2018-07-15T04:34:50.273Z,1012.94
2018-07-15T04:35:50.275Z,1012.91
2018-07-15T04:36:50.274Z,1012.98
2018-07-15T04:37:50.274Z,1012.91
2018-07-15T04:38:50.261Z,1012.93
2018-07-15T04:39:50.260Z,1012.96
2018-07-15T04:40:50.256Z,1012.91
2018-07-15T04:41:50.258Z,1012.92
2018-07-15T04:42:50.256Z,1012.93
2018-07-15T04:43:50.279Z,1012.91
2018-07-15T04:44:50.254Z,1012.87
2018-07-15T04:45:50.246Z,1012.89
2018-07-15T04:46:50.244Z,1012.90
2018-07-15T04:47:50.241Z,1012.88
2018-07-15T04:48:50.240Z,1012.94
2018-07-15T04:49:50.241Z,1012.92
2018-07-15T04:50:50.247Z,1012.92
2018-07-15T04:51:50.232Z,1012.93
2018-07-15T04:52:50.229Z,1012.97
2018-07-15T04:53:50.232Z,1012.95
2018-07-15T04:54:50.229Z,1012.95
2018-07-15T04:55:50.229Z,1012.94
2018-07-15T04:56:50.225Z,1012.96
2018-07-15T04:57:50.223Z,1012.98
2018-07-15T04:58:50.217Z,1013.05
2018-07-15T04:59:50.215Z,1013.06
2018-07-15T05:00:50.211Z,1013.08
2018-07-15T05:01:50.255Z,1013.12
2018-07-15T05:02:50.214Z,1013.20
2018-07-15T05:03:50.212Z,1013.30
2018-07-15T05:04:50.209Z,1013.30
2018-07-15T05:05:50.204Z,1013.40
2018-07-15T05:06:50.203Z,1013.51
2018-07-15T05:07:50.210Z,1013.56
2018-07-15T05:08:50.206Z,1013.58
2018-07-15T05:09:50.202Z,1013.65
2018-07-15T05:10:50.202Z,1013.71
2018-07-15T05:11:50.203Z,1013.76
2018-07-15T05:12:50.204Z,1013.87
2018-07-15T05:13:50.209Z,1013.89
2018-07-15T05:14:50.213Z,1013.94
2018-07-15T05:15:50.212Z,1013.95
2018-07-15T05:16:50.214Z,1013.97
2018-07-15T05:17:50.212Z,1014.00
2018-07-15T05:18:50.213Z,1014.03
2018-07-15T05:19:50.215Z,1014.12
2018-07-15T05:20:50.217Z,1014.13
2018-07-15T05:21:50.227Z,1014.17
2018-07-15T05:22:50.228Z,1014.20
2018-07-15T05:23:50.228Z,1014.22
2018-07-15T05:24:50.235Z,1014.25
2018-07-15T05:25:50.238Z,1014.25
2018-07-15T05:26:50.243Z,1014.30
2018-07-15T05:27:50.248Z,1014.37
2018-07-15T05:28:50.251Z,1014.34
2018-07-15T05:29:50.251Z,1014.35
2018-07-15T05:30:50.256Z,1014.34
2018-07-15T05:31:50.261Z,1014.41
2018-07-15T05:32:50.268Z,1014.44
2018-07-15T05:33:50.275Z,1014.46
2018-07-15T05:34:50.342Z,1014.52
2018-07-15T05:35:50.284Z,1014.53
2018-07-15T05:36:50.289Z,1014.54
2018-07-15T05:37:50.290Z,1014.52
2018-07-15T05:38:50.296Z,1014.56
2018-07-15T05:39:50.307Z,1014.60
2018-07-15T05:40:50.314Z,1014.64
2018-07-15T05:41:50.315Z,1014.61
2018-07-15T05:42:50.320Z,1014.67
2018-07-15T05:43:50.328Z,1014.67
2018-07-15T05:44:50.333Z,1014.67
2018-07-15T05:45:50.345Z,1014.69
2018-07-15T05:46:50.352Z,1014.72
2018-07-15T05:47:50.358Z,1014.70
2018-07-15T05:48:50.369Z,1014.74
2018-07-15T05:49:50.368Z,1014.81
2018-07-15T05:50:50.377Z,1014.81
2018-07-15T05:51:50.419Z,1014.84
2018-07-15T05:52:50.389Z,1014.86
2018-07-15T05:53:50.402Z,1014.88
2018-07-15T05:54:50.409Z,1014.90
2018-07-15T05:55:50.411Z,1014.88
2018-07-15T05:56:50.465Z,1014.91
2018-07-15T05:57:50.457Z,1014.99
2018-07-15T05:58:50.440Z,1014.99
2018-07-15T05:59:50.448Z,1014.94
2018-07-15T06:00:50.456Z,1014.99
2018-07-15T06:01:50.458Z,1015.00
2018-07-15T06:02:50.486Z,1015.03
2018-07-15T06:03:50.525Z,1015.01
2018-07-15T06:04:50.492Z,1015.05
2018-07-15T06:05:50.499Z,1015.04
2018-07-15T06:06:50.506Z,1015.03
2018-07-15T06:07:50.516Z,1015.03
2018-07-15T06:08:50.525Z,1015.01
2018-07-15T06:09:50.531Z,1015.04
2018-07-15T06:10:50.644Z,1015.05
2018-07-15T06:11:50.556Z,1015.06
2018-07-15T06:12:50.564Z,1015.08
2018-07-15T06:13:50.579Z,1015.11
2018-07-15T06:14:50.577Z,1015.10
2018-07-15T06:15:50.600Z,1015.12
2018-07-15T06:16:50.597Z,1015.18
2018-07-15T06:17:50.611Z,1015.18
2018-07-15T06:18:50.622Z,1015.18
2018-07-15T06:19:50.633Z,1015.24
2018-07-15T06:20:50.647Z,1015.23
2018-07-15T06:21:50.650Z,1015.20
2018-07-15T06:22:50.767Z,1015.22
2018-07-15T06:23:50.670Z,1015.24
2018-07-15T06:24:50.682Z,1015.24
2018-07-15T06:25:50.697Z,1015.23
2018-07-15T06:26:50.708Z,1015.25
2018-07-15T06:27:50.714Z,1015.27
2018-07-15T06:28:50.723Z,1015.26
2018-07-15T06:29:50.742Z,1015.25
2018-07-15T06:30:50.752Z,1015.29
2018-07-15T06:31:50.832Z,1015.27
2018-07-15T06:32:50.775Z,1015.26
2018-07-15T06:33:50.782Z,1015.25
2018-07-15T06:34:50.794Z,1015.24
2018-07-15T06:35:50.806Z,1015.23
2018-07-15T06:36:50.818Z,1015.25
2018-07-15T06:37:50.835Z,1015.27
2018-07-15T06:38:50.846Z,1015.23
2018-07-15T06:39:50.860Z,1015.27
2018-07-15T06:40:50.872Z,1015.27
2018-07-15T06:41:50.879Z,1015.28
2018-07-15T06:42:50.893Z,1015.24
2018-07-15T06:43:50.908Z,1015.28
2018-07-15T06:44:50.921Z,1015.26
2018-07-15T06:45:50.928Z,1015.32
2018-07-15T06:46:50.942Z,1015.32
2018-07-15T06:47:50.954Z,1015.35
2018-07-15T06:48:50.966Z,1015.32
2018-07-15T06:49:50.985Z,1015.36
2018-07-15T06:50:50.999Z,1015.35
2018-07-15T06:51:51.012Z,1015.33
2018-07-15T06:52:51.026Z,1015.32
2018-07-15T06:53:51.068Z,1015.35
2018-07-15T06:54:51.047Z,1015.33
2018-07-15T06:55:51.104Z,1015.37
2018-07-15T06:56:51.077Z,1015.34
2018-07-15T06:57:51.092Z,1015.36
2018-07-15T06:58:51.110Z,1015.36
2018-07-15T06:59:51.118Z,1015.33
2018-07-15T07:00:51.133Z,1015.31
2018-07-15T07:01:51.148Z,1015.30
2018-07-15T07:02:51.163Z,1015.29
2018-07-15T07:03:51.177Z,1015.32
2018-07-15T07:04:51.192Z,1015.32
2018-07-15T07:05:51.201Z,1015.34
2018-07-15T07:06:51.214Z,1015.30
2018-07-15T07:07:51.235Z,1015.33
2018-07-15T07:08:51.243Z,1015.30
2018-07-15T07:09:51.263Z,1015.31
2018-07-15T07:10:51.277Z,1015.32
2018-07-15T07:11:51.291Z,1015.33
2018-07-15T07:12:51.304Z,1015.36
2018-07-15T07:13:51.315Z,1015.33
2018-07-15T07:14:51.331Z,1015.37
2018-07-15T07:15:51.347Z,1015.37
2018-07-15T07:16:51.361Z,1015.33
2018-07-15T07:17:51.372Z,1015.33
2018-07-15T07:18:51.386Z,1015.34
2018-07-15T07:19:51.401Z,1015.39
2018-07-15T07:20:51.415Z,1015.34
2018-07-15T07:21:51.436Z,1015.29
2018-07-15T07:22:51.450Z,1015.30
2018-07-15T07:23:51.466Z,1015.30
2018-07-15T07:24:51.479Z,1015.32
2018-07-15T07:25:51.491Z,1015.35
2018-07-15T07:26:51.509Z,1015.29
2018-07-15T07:27:51.520Z,1015.27
2018-07-15T07:28:51.576Z,1015.31
2018-07-15T07:29:51.553Z,1015.29
2018-07-15T07:30:51.569Z,1015.23
2018-07-15T07:31:51.582Z,1015.28
2018-07-15T07:32:51.602Z,1015.26
2018-07-15T07:33:51.615Z,1015.28
2018-07-15T07:34:51.630Z,1015.30
2018-07-15T07:35:51.647Z,1015.30
2018-07-15T07:36:51.663Z,1015.30
2018-07-15T07:37:51.673Z,1015.26
2018-07-15T07:38:51.789Z,1015.29
2018-07-15T07:39:51.704Z,1015.32
2018-07-15T07:40:51.718Z,1015.33
2018-07-15T07:41:51.746Z,1015.41
2018-07-15T07:42:51.756Z,1015.36
2018-07-15T07:43:51.771Z,1015.34
2018-07-15T07:44:51.785Z,1015.33
2018-07-15T07:45:51.798Z,1015.33
2018-07-15T07:46:51.848Z,1015.33
2018-07-15T07:47:51.833Z,1014.47
2018-07-15T07:48:51.848Z,1014.45
2018-07-15T07:49:51.860Z,1014.39
2018-07-15T07:50:51.876Z,1014.44
2018-07-15T07:51:51.893Z,1014.42
2018-07-15T07:52:51.908Z,1014.39
2018-07-15T07:53:51.929Z,1014.39
2018-07-15T07:54:51.945Z,1014.42
2018-07-15T07:55:51.962Z,1014.40
2018-07-15T07:56:51.977Z,1014.36
2018-07-15T07:57:51.988Z,1014.38
2018-07-15T07:58:52.003Z,1014.31
2018-07-15T07:59:52.019Z,1014.37
2018-07-15T08:00:52.035Z,1014.32
2018-07-15T08:01:52.110Z,1014.30
2018-07-15T08:02:52.072Z,1014.39
2018-07-15T08:03:52.084Z,1014.30
2018-07-15T08:04:52.099Z,1014.29
2018-07-15T08:05:52.120Z,1014.34
2018-07-15T08:06:52.137Z,1014.28
2018-07-15T08:07:52.155Z,1014.28
2018-07-15T08:08:52.170Z,1014.29
2018-07-15T08:09:52.182Z,1014.31
2018-07-15T08:10:52.199Z,1014.32
2018-07-15T08:11:52.217Z,1014.29
2018-07-15T08:12:52.231Z,1014.30
2018-07-15T08:13:52.250Z,1014.30
2018-07-15T08:14:52.268Z,1014.29
2018-07-15T08:15:52.284Z,1014.31
2018-07-15T08:16:52.300Z,1014.27
2018-07-15T08:17:52.314Z,1014.25
2018-07-15T08:18:52.329Z,1014.26
2018-07-15T08:19:52.351Z,1014.29
2018-07-15T08:20:52.366Z,1014.20
2018-07-15T08:21:52.381Z,1014.17
2018-07-15T08:22:52.396Z,1014.15
2018-07-15T08:23:52.414Z,1014.14
2018-07-15T08:24:52.430Z,1014.21
2018-07-15T08:25:52.452Z,1014.22
2018-07-15T08:26:52.470Z,1014.21
2018-07-15T08:27:52.486Z,1014.18
2018-07-15T08:28:52.504Z,1014.16
2018-07-15T08:29:52.516Z,1014.17
2018-07-15T08:30:52.532Z,1014.16
2018-07-15T08:31:52.549Z,1014.15
2018-07-15T08:32:52.566Z,1014.15
2018-07-15T08:33:52.588Z,1014.15
2018-07-15T08:34:52.626Z,1014.15
2018-07-15T08:35:52.620Z,1014.12
2018-07-15T08:36:52.635Z,1014.11
2018-07-15T08:37:52.657Z,1014.12
2018-07-15T08:38:52.675Z,1014.16
2018-07-15T08:39:52.694Z,1014.17
2018-07-15T08:40:52.722Z,1014.22
2018-07-15T08:41:52.728Z,1014.13
2018-07-15T08:42:52.741Z,1014.11
2018-07-15T08:43:52.759Z,1014.08
2018-07-15T08:44:52.775Z,1014.11
2018-07-15T08:45:52.859Z,1014.16
2018-07-15T08:46:52.816Z,1014.16
2018-07-15T08:47:52.837Z,1014.15
2018-07-15T08:48:52.852Z,1014.12
2018-07-15T08:49:52.867Z,1014.15
2018-07-15T08:50:52.888Z,1014.14
2018-07-15T08:51:52.908Z,1014.14
2018-07-15T08:52:52.925Z,1014.09
2018-07-15T08:53:52.940Z,1014.13
2018-07-15T08:54:52.959Z,1014.17
2018-07-15T08:55:52.977Z,1014.09
2018-07-15T08:56:52.995Z,1014.07
2018-07-15T08:57:53.019Z,1014.07
2018-07-15T08:58:53.038Z,1014.09
2018-07-15T08:59:53.058Z,1014.11
2018-07-15T09:00:53.075Z,1014.06
2018-07-15T09:01:53.093Z,1014.07
2018-07-15T09:02:53.107Z,1014.01
2018-07-15T09:03:53.123Z,1014.04
2018-07-15T09:04:53.141Z,1014.07
2018-07-15T09:05:53.164Z,1014.10
2018-07-15T09:06:53.183Z,1014.04
2018-07-15T09:07:53.196Z,1014.05
2018-07-15T09:08:53.216Z,1014.06
2018-07-15T09:09:53.237Z,1014.03
2018-07-15T09:10:53.255Z,1014.06
2018-07-15T09:11:53.272Z,1014.08
2018-07-15T09:12:53.289Z,1014.07
2018-07-15T09:13:53.306Z,1014.02
2018-07-15T09:14:53.322Z,1014.03
2018-07-15T09:15:53.343Z,1014.02
2018-07-15T09:16:53.358Z,1014.05
2018-07-15T09:17:53.382Z,1014.07
2018-07-15T09:18:53.400Z,1014.08
2018-07-15T09:19:53.417Z,1014.08
2018-07-15T09:20:53.435Z,1013.99
2018-07-15T09:21:53.532Z,1014.01
2018-07-15T09:22:53.467Z,1014.03
2018-07-15T09:23:53.492Z,1014.00
2018-07-15T09:24:53.509Z,1013.99
2018-07-15T09:25:53.522Z,1013.98
2018-07-15T09:26:53.539Z,1013.93
2018-07-15T09:27:53.576Z,1013.92
2018-07-15T09:28:53.575Z,1013.99
2018-07-15T09:29:53.597Z,1013.93
2018-07-15T09:30:53.615Z,1013.98
2018-07-15T09:31:53.634Z,1013.98
2018-07-15T09:32:53.650Z,1014.03
2018-07-15T09:33:53.665Z,1013.94
2018-07-15T09:34:53.682Z,1013.96
2018-07-15T09:35:53.708Z,1013.97
2018-07-15T09:36:53.718Z,1014.00
2018-07-15T09:37:53.742Z,1013.97
2018-07-15T09:38:53.764Z,1014.01
2018-07-15T09:39:53.772Z,1013.98
2018-07-15T09:40:53.791Z,1013.97
2018-07-15T09:41:53.813Z,1014.01
2018-07-15T09:42:53.832Z,1014.02
2018-07-15T09:43:53.850Z,1013.95
2018-07-15T09:44:53.869Z,1013.90
2018-07-15T09:45:53.882Z,1013.95
2018-07-15T09:46:53.899Z,1014.01
2018-07-15T09:47:53.917Z,1013.98
2018-07-15T09:48:53.935Z,1013.94
2018-07-15T09:49:53.960Z,1013.97
2018-07-15T09:50:53.978Z,1014.05
2018-07-15T09:51:53.999Z,1014.03
2018-07-15T09:52:54.016Z,1013.98
2018-07-15T09:53:54.030Z,1013.96
2018-07-15T09:54:54.050Z,1013.92
2018-07-15T09:55:54.074Z,1013.97
2018-07-15T09:56:54.092Z,1013.93
2018-07-15T09:57:54.111Z,1013.89
2018-07-15T09:58:54.127Z,1013.95
2018-07-15T09:59:54.147Z,1013.91
2018-07-15T10:00:54.162Z,1013.88
2018-07-15T10:01:54.185Z,1013.90
2018-07-15T10:02:54.204Z,1013.82
2018-07-15T10:03:54.226Z,1013.82
2018-07-15T10:04:54.242Z,1013.78
2018-07-15T10:05:54.256Z,1013.80
2018-07-15T10:06:54.274Z,1013.80
2018-07-15T10:07:54.293Z,1013.84
2018-07-15T10:08:54.310Z,1013.84
2018-07-15T10:09:54.334Z,1013.78
2018-07-15T10:10:54.353Z,1013.78
2018-07-15T10:11:54.369Z,1013.71
2018-07-15T10:12:54.387Z,1013.71
2018-07-15T10:13:54.409Z,1013.71
2018-07-15T10:14:54.431Z,1013.72
2018-07-15T10:15:54.450Z,1013.77
2018-07-15T10:16:54.469Z,1013.77
2018-07-15T10:17:54.484Z,1013.67
2018-07-15T10:18:54.534Z,1013.69
2018-07-15T10:19:54.522Z,1013.72
2018-07-15T10:20:54.537Z,1013.66
2018-07-15T10:21:54.561Z,1013.70
2018-07-15T10:22:54.578Z,1013.72
2018-07-15T10:23:54.597Z,1013.73
2018-07-15T10:24:54.615Z,1013.70
2018-07-15T10:25:54.628Z,1013.68
2018-07-15T10:26:54.647Z,1013.68
2018-07-15T10:27:54.670Z,1013.63
2018-07-15T10:28:54.688Z,1013.67
2018-07-15T10:29:54.701Z,1013.63
2018-07-15T10:30:54.721Z,1013.68
2018-07-15T10:31:54.741Z,1013.68
2018-07-15T10:32:54.755Z,1013.69
2018-07-15T10:33:54.780Z,1013.67
2018-07-15T10:34:54.798Z,1013.65
2018-07-15T10:35:54.818Z,1013.59
2018-07-15T10:36:54.835Z,1013.59
2018-07-15T10:37:54.847Z,1013.58
2018-07-15T10:38:54.881Z,1013.55
2018-07-15T10:39:54.886Z,1013.53
2018-07-15T10:40:54.902Z,1013.56
2018-07-15T10:41:54.929Z,1013.53
2018-07-15T10:42:54.943Z,1013.51
2018-07-15T10:43:54.958Z,1013.53
2018-07-15T10:44:54.976Z,1013.58
2018-07-15T10:45:55.002Z,1013.55
2018-07-15T10:46:55.016Z,1013.53
2018-07-15T10:47:55.037Z,1013.58
2018-07-15T10:48:55.054Z,1013.58
2018-07-15T10:49:55.067Z,1013.56
2018-07-15T10:50:55.089Z,1013.55
2018-07-15T10:51:55.104Z,1013.49
2018-07-15T10:52:55.148Z,1013.50
2018-07-15T10:53:55.146Z,1013.48
2018-07-15T10:54:55.167Z,1013.44
2018-07-15T10:55:55.183Z,1013.46
2018-07-15T10:56:55.203Z,1013.47
2018-07-15T10:57:55.215Z,1013.43
2018-07-15T10:58:55.232Z,1013.50
2018-07-15T10:59:55.257Z,1013.48
2018-07-15T11:00:55.276Z,1013.47
2018-07-15T11:01:55.289Z,1013.46
2018-07-15T11:02:55.308Z,1013.42
2018-07-15T11:03:55.326Z,1013.47
2018-07-15T11:04:55.344Z,1013.39
2018-07-15T11:05:55.368Z,1013.42
2018-07-15T11:06:55.385Z,1013.40
2018-07-15T11:07:55.404Z,1013.41
2018-07-15T11:08:55.421Z,1013.38
2018-07-15T11:09:55.434Z,1013.31
2018-07-15T11:10:55.454Z,1013.37
2018-07-15T11:11:55.473Z,1013.41
2018-07-15T11:12:55.489Z,1013.38
2018-07-15T11:13:55.514Z,1013.38
2018-07-15T11:14:55.532Z,1013.31
2018-07-15T11:15:55.546Z,1013.29
2018-07-15T11:16:55.562Z,1013.29
2018-07-15T11:17:55.591Z,1013.25
2018-07-15T11:18:55.604Z,1013.20
2018-07-15T11:19:55.621Z,1013.21
2018-07-15T11:20:55.638Z,1013.19
2018-07-15T11:21:55.653Z,1013.21
2018-07-15T11:22:55.674Z,1013.16
2018-07-15T11:23:55.689Z,1013.14
2018-07-15T11:24:55.715Z,1013.03
2018-07-15T11:25:55.726Z,1012.92
2018-07-15T11:26:55.744Z,1012.94
2018-07-15T11:27:55.762Z,1012.90
2018-07-15T11:28:55.777Z,1012.85
2018-07-15T11:29:55.789Z,1012.80
2018-07-15T11:30:55.881Z,1012.75
2018-07-15T11:31:55.826Z,1012.75
2018-07-15T11:32:55.840Z,1012.73
2018-07-15T11:33:55.850Z,1012.70
2018-07-15T11:34:55.865Z,1012.73
2018-07-15T11:35:55.878Z,1012.69
2018-07-15T11:36:55.891Z,1012.66
2018-07-15T11:37:55.909Z,1012.63
2018-07-15T11:38:55.977Z,1012.58
2018-07-15T11:39:55.936Z,1012.57
2018-07-15T11:40:55.951Z,1012.64
2018-07-15T11:41:55.956Z,1012.58
2018-07-15T11:42:55.968Z,1012.55
2018-07-15T11:43:55.977Z,1012.53
2018-07-15T11:44:55.989Z,1012.55
2018-07-15T11:45:56.011Z,1012.53
2018-07-15T11:46:56.013Z,1012.51
2018-07-15T11:47:56.020Z,1012.47
2018-07-15T11:48:56.028Z,1012.40
2018-07-15T11:49:56.043Z,1012.41
2018-07-15T11:50:56.054Z,1012.41
2018-07-15T11:51:56.062Z,1012.38
2018-07-15T11:52:56.070Z,1012.40
2018-07-15T11:53:56.075Z,1012.42
2018-07-15T11:54:56.094Z,1012.34
2018-07-15T11:55:56.092Z,1012.30
2018-07-15T11:56:56.100Z,1012.25
2018-07-15T11:57:56.114Z,1012.32
2018-07-15T11:58:56.121Z,1012.34
2018-07-15T11:59:56.131Z,1012.31
2018-07-15T12:00:56.139Z,1012.30
2018-07-15T12:01:56.180Z,1012.25
2018-07-15T12:02:56.150Z,1012.22
2018-07-15T12:03:56.162Z,1012.24
2018-07-15T12:04:56.168Z,1012.20
2018-07-15T12:05:56.171Z,1012.18